Time,TemperatureF,DewpointF,PressureIn,WindDirection,WindDirectionDegrees,WindSpeedMPH,WindSpeedGustMPH,Humidity,HourlyPrecipIn,Conditions,Clouds,dailyrainin,SoftwareType,DateUTC
2013-03-07 00:02:00,43.1,41.0,29.99,WSW,244,0.0,-999.0,91,-99.99,,,0.00,weatherlink.com 1.10,2013-03-07 08:02:00,
2013-03-07 00:17:00,43.1,41.0,29.98,WSW,244,0.0,-999.0,92,-99.99,,,0.00,weatherlink.com 1.10,2013-03-07 08:17:00,
2013-03-07 00:32:00,42.9,41.0,29.98,WSW,244,0.0,-999.0,92,-99.99,,,0.00,weatherlink.com 1.10,2013-03-07 08:32:00,
2013-03-07 00:47:00,42.8,41.0,29.98,WSW,245,0.0,-999.0,92,-99.99,,,0.00,weatherlink.com 1.10,2013-03-07 08:47:00,
2013-03-07 01:02:00,43.1,41.0,29.98,WSW,244,0.0,-999.0,93,-99.99,,,0.00,weatherlink.com 1.10,2013-03-07 09:02:00,
2013-03-07 01:17:00,43.6,42.0,29.98,WSW,244,0.0,-999.0,93,-99.99,,,0.00,weatherlink.com 1.10,2013-03-07 09:17:00,
2013-03-07 01:32:00,44.1,42.0,29.98,WSW,245,0.0,-999.0,93,-99.99,,,0.00,weatherlink.com 1.10,2013-03-07 09:32:00,
2013-03-07 01:47:00,44.2,42.0,29.98,WSW,245,0.0,-999.0,93,-99.99,,,0.00,weatherlink.com 1.10,2013-03-07 09:47:00,
2013-03-07 02:02:00,44.1,42.0,29.98,WSW,244,0.0,-999.0,93,-99.99,,,0.00,weatherlink.com 1.10,2013-03-07 10:02:00,
2013-03-07 02:17:00,43.9,42.0,29.97,WSW,245,0.0,-999.0,93,-99.99,,,0.00,weatherlink.com 1.10,2013-03-07 10:17:00,
2013-03-07 02:32:00,43.8,42.0,29.97,WSW,244,0.0,-999.0,93,-99.99,,,0.00,weatherlink.com 1.10,2013-03-07 10:32:00,
2013-03-07 02:47:00,43.9,42.0,29.96,WSW,245,0.0,-999.0,93,-99.99,,,0.00,weatherlink.com 1.10,2013-03-07 10:47:00,
2013-03-07 03:02:00,43.8,42.0,29.95,WSW,245,0.0,-999.0,93,-99.99,,,0.00,weatherlink.com 1.10,2013-03-07 11:02:00,
2013-03-07 03:17:00,43.5,42.0,29.95,WSW,244,0.0,-999.0,93,-99.99,,,0.00,weatherlink.com 1.10,2013-03-07 11:17:00,
2013-03-07 03:32:00,43.5,42.0,29.95,WSW,244,0.0,-999.0,93,-99.99,,,0.00,weatherlink.com 1.10,2013-03-07 11:32:00,
2013-03-07 03:47:00,43.2,41.0,29.95,WSW,245,0.0,-999.0,93,-99.99,,,0.00,weatherlink.com 1.10,2013-03-07 11:47:00,
2013-03-07 04:02:00,43.2,41.0,29.95,WSW,244,0.0,-999.0,93,-99.99,,,0.00,weatherlink.com 1.10,2013-03-07 12:02:00,
2013-03-07 04:17:00,42.8,41.0,29.95,WSW,244,0.0,-999.0,93,-99.99,,,0.00,weatherlink.com 1.10,2013-03-07 12:17:00,
2013-03-07 04:32:00,42.8,41.0,29.95,WSW,244,0.0,-999.0,93,-99.99,,,0.00,weatherlink.com 1.10,2013-03-07 12:32:00,
2013-03-07 05:02:00,42.5,41.0,29.94,WSW,245,0.0,-999.0,94,-99.99,,,0.00,weatherlink.com 1.10,2013-03-07 13:02:00,
2013-03-07 05:17:00,42.8,41.0,29.94,WSW,245,0.0,-999.0,93,-99.99,,,0.00,weatherlink.com 1.10,2013-03-07 13:17:00,
2013-03-07 05:32:00,42.6,41.0,29.93,WSW,244,0.0,-999.0,93,-99.99,,,0.00,weatherlink.com 1.10,2013-03-07 13:32:00,
2013-03-07 05:47:00,42.5,41.0,29.94,WSW,244,0.0,-999.0,93,-99.99,,,0.00,weatherlink.com 1.10,2013-03-07 13:47:00,
2013-03-07 06:02:00,42.9,41.0,29.93,WSW,244,0.0,-999.0,93,-99.99,,,0.00,weatherlink.com 1.10,2013-03-07 14:02:00,
2013-03-07 06:17:00,42.8,41.0,29.94,WSW,245,0.0,-999.0,93,-99.99,,,0.00,weatherlink.com 1.10,2013-03-07 14:17:00,
2013-03-07 06:32:00,42.6,41.0,29.95,WSW,245,0.0,-999.0,93,-99.99,,,0.00,weatherlink.com 1.10,2013-03-07 14:32:00,
2013-03-07 06:47:00,42.6,41.0,29.95,WSW,244,0.0,-999.0,93,-99.99,,,0.00,weatherlink.com 1.10,2013-03-07 14:47:00,
2013-03-07 07:02:00,43.1,41.0,29.94,WSW,244,0.0,-999.0,93,-99.99,,,0.00,weatherlink.com 1.10,2013-03-07 15:02:00,
2013-03-07 07:17:00,43.5,42.0,29.94,WSW,244,0.0,-999.0,93,-99.99,,,0.00,weatherlink.com 1.10,2013-03-07 15:17:00,
2013-03-07 07:32:00,43.9,42.0,29.94,WSW,244,0.0,-999.0,93,-99.99,,,0.00,weatherlink.com 1.10,2013-03-07 15:32:00,
2013-03-07 07:47:00,44.6,43.0,29.95,WSW,245,0.0,-999.0,94,-99.99,,,0.00,weatherlink.com 1.10,2013-03-07 15:47:00,
2013-03-07 08:02:00,45.7,44.0,29.94,WSW,245,0.0,-999.0,94,-99.99,,,0.00,weatherlink.com 1.10,2013-03-07 16:02:00,
2013-03-07 08:17:00,46.4,45.0,29.94,WSW,245,0.0,-999.0,93,-99.99,,,0.00,weatherlink.com 1.10,2013-03-07 16:17:00,
2013-03-07 08:32:00,47.1,45.0,29.95,WSW,245,0.0,-999.0,91,-99.99,,,0.00,weatherlink.com 1.10,2013-03-07 16:32:00,
2013-03-07 08:48:00,48.2,45.0,29.95,WSW,245,0.0,-999.0,87,-99.99,,,0.00,weatherlink.com 1.10,2013-03-07 16:48:00,
2013-03-07 09:03:00,49.2,44.0,29.95,WSW,245,0.0,-999.0,82,-99.99,,,0.00,weatherlink.com 1.10,2013-03-07 17:03:00,
2013-03-07 09:18:00,50.5,43.0,29.95,WSW,246,0.0,-999.0,75,-99.99,,,0.00,weatherlink.com 1.10,2013-03-07 17:18:00,
2013-03-07 09:33:00,51.3,41.0,29.95,ESE,121,0.0,-999.0,69,-99.99,,,0.00,weatherlink.com 1.10,2013-03-07 17:33:00,
2013-03-07 09:48:00,52.8,40.0,29.95,SW,229,1.0,-999.0,63,-99.99,,,0.00,weatherlink.com 1.10,2013-03-07 17:48:00,
2013-03-07 10:03:00,54.1,39.0,29.94,SW,225,0.0,-999.0,56,-99.99,,,0.00,weatherlink.com 1.10,2013-03-07 18:03:00,
2013-03-07 10:18:00,55.4,36.0,29.94,WSW,246,0.0,-999.0,49,-99.99,,,0.00,weatherlink.com 1.10,2013-03-07 18:18:00,
2013-03-07 10:35:00,56.6,41.0,29.94,NW,315,0.0,-999.0,56,-99.99,,,0.00,weatherlink.com 1.10,2013-03-07 18:35:00,
2013-03-07 10:48:00,57.2,40.0,29.93,WSW,244,1.0,-999.0,54,-99.99,,,0.00,weatherlink.com 1.10,2013-03-07 18:48:00,
2013-03-07 11:03:00,56.5,40.0,29.93,West,277,0.0,-999.0,54,-99.99,,,0.00,weatherlink.com 1.10,2013-03-07 19:03:00,
2013-03-07 11:18:00,56.6,39.0,29.93,SSW,209,0.0,-999.0,52,-99.99,,,0.00,weatherlink.com 1.10,2013-03-07 19:18:00,
2013-03-07 11:35:00,56.0,40.0,29.93,SW,223,0.0,-999.0,56,-99.99,,,0.00,weatherlink.com 1.10,2013-03-07 19:35:00,
2013-03-07 11:48:00,56.6,38.0,29.92,WNW,288,2.0,-999.0,51,-99.99,,,0.00,weatherlink.com 1.10,2013-03-07 19:48:00,
2013-03-07 12:03:00,57.0,37.0,29.92,WSW,248,2.0,-999.0,47,-99.99,,,0.00,weatherlink.com 1.10,2013-03-07 20:03:00,
2013-03-07 12:18:00,57.2,38.0,29.92,West,278,0.0,-999.0,49,-99.99,,,0.00,weatherlink.com 1.10,2013-03-07 20:18:00,
2013-03-07 12:33:00,57.0,38.0,29.91,South,175,2.0,-999.0,50,-99.99,,,0.00,weatherlink.com 1.10,2013-03-07 20:33:00,
2013-03-07 12:48:00,57.6,37.0,29.91,South,186,0.0,-999.0,46,-99.99,,,0.00,weatherlink.com 1.10,2013-03-07 20:48:00,
2013-03-07 13:03:00,57.3,36.0,29.90,SSE,154,0.0,-999.0,45,-99.99,,,0.00,weatherlink.com 1.10,2013-03-07 21:03:00,
2013-03-07 13:18:00,58.3,37.0,29.89,SSW,205,0.0,-999.0,46,-99.99,,,0.00,weatherlink.com 1.10,2013-03-07 21:18:00,
2013-03-07 13:33:00,59.6,39.0,29.89,West,279,0.0,-999.0,46,-99.99,,,0.00,weatherlink.com 1.10,2013-03-07 21:33:00,
2013-03-07 13:48:00,58.4,38.0,29.88,East,94,0.0,-999.0,47,-99.99,,,0.00,weatherlink.com 1.10,2013-03-07 21:48:00,
2013-03-07 14:03:00,57.5,38.0,29.88,East,86,1.0,-999.0,49,-99.99,,,0.00,weatherlink.com 1.10,2013-03-07 22:03:00,
2013-03-07 14:18:00,57.8,39.0,29.87,ENE,57,2.0,-999.0,49,-99.99,,,0.00,weatherlink.com 1.10,2013-03-07 22:18:00,
2013-03-07 14:34:00,58.6,38.0,29.87,East,86,3.0,-999.0,46,-99.99,,,0.00,weatherlink.com 1.10,2013-03-07 22:34:00,
2013-03-07 14:48:00,57.6,37.0,29.87,WNW,285,2.0,-999.0,47,-99.99,,,0.00,weatherlink.com 1.10,2013-03-07 22:48:00,
2013-03-07 15:04:00,56.7,38.0,29.87,East,94,0.0,-999.0,49,-99.99,,,0.00,weatherlink.com 1.10,2013-03-07 23:04:00,
2013-03-07 15:18:00,56.3,37.0,29.86,NE,53,0.0,-999.0,49,-99.99,,,0.00,weatherlink.com 1.10,2013-03-07 23:18:00,
2013-03-07 15:34:00,56.0,38.0,29.86,East,80,0.0,-999.0,52,-99.99,,,0.00,weatherlink.com 1.10,2013-03-07 23:34:00,
2013-03-07 15:48:00,55.6,38.0,29.86,East,86,0.0,-999.0,52,-99.99,,,0.00,weatherlink.com 1.10,2013-03-07 23:48:00,
2013-03-07 16:04:00,56.0,38.0,29.86,ENE,64,0.0,-999.0,51,-99.99,,,0.00,weatherlink.com 1.10,2013-03-08 00:04:00,
2013-03-07 16:19:00,56.3,38.0,29.86,ESE,107,0.0,-999.0,50,-99.99,,,0.00,weatherlink.com 1.10,2013-03-08 00:19:00,
2013-03-07 16:35:00,56.2,37.0,29.85,East,98,0.0,-999.0,49,-99.99,,,0.00,weatherlink.com 1.10,2013-03-08 00:35:00,
2013-03-07 16:49:00,55.6,37.0,29.85,ENE,67,1.0,-999.0,50,-99.99,,,0.00,weatherlink.com 1.10,2013-03-08 00:49:00,
2013-03-07 17:04:00,55.0,37.0,29.85,North,360,0.0,-999.0,51,-99.99,,,0.00,weatherlink.com 1.10,2013-03-08 01:04:00,
2013-03-07 17:19:00,54.8,40.0,29.86,South,180,1.0,-999.0,58,-99.99,,,0.00,weatherlink.com 1.10,2013-03-08 01:19:00,
2013-03-07 17:35:00,53.2,43.0,29.86,South,175,0.0,-999.0,69,-99.99,,,0.00,weatherlink.com 1.10,2013-03-08 01:35:00,
2013-03-07 17:49:00,51.7,44.0,29.86,ENE,68,0.0,-999.0,75,-99.99,,,0.00,weatherlink.com 1.10,2013-03-08 01:49:00,
2013-03-07 18:05:00,50.8,44.0,29.86,ENE,68,0.0,-999.0,78,-99.99,,,0.00,weatherlink.com 1.10,2013-03-08 02:05:00,
2013-03-07 18:19:00,50.8,45.0,29.86,ENE,68,0.0,-999.0,81,-99.99,,,0.00,weatherlink.com 1.10,2013-03-08 02:19:00,
2013-03-07 18:34:00,50.5,45.0,29.86,ENE,68,0.0,-999.0,82,-99.99,,,0.00,weatherlink.com 1.10,2013-03-08 02:34:00,
2013-03-07 18:49:00,50.5,46.0,29.86,ENE,68,0.0,-999.0,83,-99.99,,,0.00,weatherlink.com 1.10,2013-03-08 02:49:00,
2013-03-07 19:05:00,50.4,45.0,29.86,ENE,68,0.0,-999.0,83,-99.99,,,0.00,weatherlink.com 1.10,2013-03-08 03:05:00,
2013-03-07 19:19:00,50.4,46.0,29.86,ENE,68,0.0,-999.0,84,-99.99,,,0.00,weatherlink.com 1.10,2013-03-08 03:19:00,
2013-03-07 19:34:00,50.2,46.0,29.86,ENE,68,0.0,-999.0,84,-99.99,,,0.00,weatherlink.com 1.10,2013-03-08 03:34:00,
2013-03-07 19:49:00,49.8,45.0,29.87,ENE,68,0.0,-999.0,84,-99.99,,,0.00,weatherlink.com 1.10,2013-03-08 03:49:00,
2013-03-07 20:04:00,49.8,46.0,29.87,ENE,68,0.0,-999.0,85,-99.99,,,0.00,weatherlink.com 1.10,2013-03-08 04:04:00,
2013-03-07 20:20:00,49.6,46.0,29.87,ENE,68,0.0,-999.0,86,-99.99,,,0.00,weatherlink.com 1.10,2013-03-08 04:20:00,
2013-03-07 20:35:00,49.5,46.0,29.86,ENE,68,0.0,-999.0,87,-99.99,,,0.00,weatherlink.com 1.10,2013-03-08 04:35:00,
2013-03-07 20:50:00,49.4,46.0,29.87,ENE,68,0.0,-999.0,88,-99.99,,,0.00,weatherlink.com 1.10,2013-03-08 04:50:00,
2013-03-07 21:04:00,49.2,46.0,29.88,ENE,68,0.0,-999.0,88,-99.99,,,0.01,weatherlink.com 1.10,2013-03-08 05:04:00,
2013-03-07 21:20:00,49.2,46.0,29.88,ENE,68,0.0,-999.0,89,-99.99,,,0.01,weatherlink.com 1.10,2013-03-08 05:20:00,
2013-03-07 21:35:00,49.1,46.0,29.88,ENE,68,0.0,-999.0,89,-99.99,,,0.01,weatherlink.com 1.10,2013-03-08 05:35:00,
2013-03-07 21:50:00,49.1,46.0,29.88,ENE,68,0.0,-999.0,90,-99.99,,,0.01,weatherlink.com 1.10,2013-03-08 05:50:00,
2013-03-07 22:05:00,48.9,46.0,29.88,ENE,68,0.0,-999.0,90,-99.99,,,0.01,weatherlink.com 1.10,2013-03-08 06:05:00,
2013-03-07 22:20:00,48.8,46.0,29.88,ENE,68,0.0,-999.0,90,-99.99,,,0.01,weatherlink.com 1.10,2013-03-08 06:20:00,
2013-03-07 22:35:00,48.6,46.0,29.87,ENE,68,0.0,-999.0,91,-99.99,,,0.02,weatherlink.com 1.10,2013-03-08 06:35:00,
2013-03-07 22:50:00,48.5,46.0,29.86,ENE,68,0.0,-999.0,91,-99.99,,,0.02,weatherlink.com 1.10,2013-03-08 06:50:00,
2013-03-07 23:05:00,48.3,46.0,29.86,ENE,68,0.0,-999.0,91,-99.99,,,0.02,weatherlink.com 1.10,2013-03-08 07:05:00,
2013-03-07 23:20:00,48.0,46.0,29.86,ENE,68,0.0,-999.0,91,-99.99,,,0.02,weatherlink.com 1.10,2013-03-08 07:20:00,
2013-03-07 23:35:00,47.7,45.0,29.86,ENE,68,0.0,-999.0,91,-99.99,,,0.02,weatherlink.com 1.10,2013-03-08 07:35:00,
2013-03-07 23:50:00,47.4,45.0,29.86,ENE,68,0.0,-999.0,91,-99.99,,,0.02,weatherlink.com 1.10,2013-03-08 07:50:00,